Rushville, MO (64484)

8:05 PM CST on January 16, 2017 (GMT -0600)
MD3015 | | Change Station
Active Advisory: Dense Fog Advisory

Elev 793 ft 39.66 °N, 95.01 °W | Updated 2 seconds ago

Overcast
Overcast
38.0 °F
Feels Like 38 °F
N
0.0
Wind Variable Wind from North

Today
High -- | Low -- °F
--% Chance of Precip.
Yesterday
High -- | Low -- °F
Precip. -- in
Pressure 29.92 in
Visibility 10.0 miles
Clouds Overcast 800 ft
Windchill 38 °F
Dew Point 37 °F
Humidity 96%
Rainfall 0.55 in
Snow Depth Not available.
7:38 AM 5:21 PM
Waning Gibbous, 76% visible
METAR KSTJ 170153Z AUTO 30005KT 10SM OVC008 03/03 A2990 RMK AO2 SLP132 T00280028
Pressure 29.92 in
Visibility 10.0 miles
Clouds Overcast 800 ft
Windchill 38 °F
Dew Point 37 °F
Humidity 96%
Rainfall 0.55 in
Snow Depth Not available.
7:38 AM 5:21 PM
Waning Gibbous, 76% visible
METAR KSTJ 170153Z AUTO 30005KT 10SM OVC008 03/03 A2990 RMK AO2 SLP132 T00280028

Get Your Daily Forecast Email!

Thanks for signing up!

Be on the lookout for a verification email in your inbox.

You'll start receiving the daily forecast at 8 AM.

×

10-Day Weather Forecast

Almanac

Astronomy

Jan. 16, 2017 Rise Set
Actual Time
Civil Twilight
Nautical Twilight
Astronomical Twilight
Moon
Length of Visible Light
Length of Day
Tomorrow will be .
, % of the Moon is Illuminated

Today's Extremes

State Highs State Lows

Community

WunderPhotos

Upload Photos

1,962,540 photos uploaded!

WunderBlog® & News

Nearby

Air Quality

  Air Quality AQ Index Pollutant
Not available.

Snow Depth

Station Depth Elevation

Earthquake Activity

City Distance Mag. Time & Date
Minimum magnitude displayed is 2.5.

Coastal Water Temperatures

Place Temperature

Stations

Nearby Weather Stations

Station Location Temp. Windchill Dew Point Humidity Wind Precip. Elev Updated Type
                   

Watches & Warnings

Dense Fog Advisory
Issued: 5:08 PM CST Jan. 16, 2017 – National Weather Service

... Dense fog advisory in effect until midnight CST tonight...

The National Weather Service in Kansas City/Pleasant Hill has
issued a dense fog advisory, which is in effect until midnight
CST tonight.

* Visibility... visibilities of one-quarter mile or less at times
are expected.

* Impacts... rapid changes in visibility will cause hazardous
driving conditions.

Precautionary/preparedness actions...

A dense fog advisory means visibilities will frequently be
reduced to less than one quarter mile. If driving, slow down, use
your headlights, and leave plenty of distance ahead of you.